Etusivu
METAR-TAF:

METAR-TAF

Lentoasemat :

Ağrı, Turkki

Leveyspiiri: 39-39-16N, Pituuspiiri: 43-01-38E, korkeus merenpinnasta: 1665 m

Tämänhetkinen sää

Tämä raportti tehtiin 13 tuntia ja 32 minuuttia sitten, kello 13.50 UTC
Tuuli 23 kn idästä
Lämpötila -3°C
Kosteus 86%
Ilmanpaine 1021 hPa
Näkyvyys 10 km tai enemmän
Hajanaisia pilviä 3000 ft:n korkeudessa
Hajonneita pilviä 8000 ft:n korkeudessa

METAR: LTCO 171350Z 09023KT 9999 SCT030 BKN080 M03/M05 Q1021

Aika: 06:22 (03:22 UTC)

Sääennuste

Tämä raportti tehtiin 1 tunti ja 42 minuuttia sitten, kello 01.40 UTC
Ennuste voimassa 18. päivästä klo 03 UTC - 18. päivään klo 12 UTC
Tuuli 2 kn eri suunnista
Näkyvyys 10 km tai enemmän
Hajanaisia pilviä 3500 ft:n korkeudessa

TAF: LTCO 180140Z 1803/1812 VRB02KT 9999 SCT035

Säähavainnot ja -ennusteet yli 4000 lentoasemalta (METAR- ja TAF-raportit).

Käytössä olevat sääasemat on merkitty karttaan keltaisilla ja punaisilla pisteillä.

Aseta hiiri pisteen päälle nähdäksesi sääaseman nimen.

Klikkaa sitten nähdäksesi säähavainnot ja -ennusteet.

Kartan vaihtaminen: klikkaa mustalla rastilla varustettuja vihreitä pisteitä, niin voit zoomata sisään; viivalla varustettua vihreää pistettä, niin voit zoomata ulos tai vihreitä nuolia, niin pääset viereisille kartoille.


METAR-TAF: